Time,TemperatureF,DewpointF,PressureIn,WindDirection,WindDirectionDegrees,WindSpeedMPH,WindSpeedGustMPH,Humidity,HourlyPrecipIn,Conditions,Clouds,dailyrainin,SoftwareType,DateUTC
2013-06-25 00:06:00,53.6,50.7,29.52,NE,45,0.0,-999.0,90,-99.99,,,0.00,Acu-Link.com,2013-06-25 07:06:00,
2013-06-25 00:21:00,53.6,53.0,29.52,ESE,112,0.0,-999.0,98,-99.99,,,0.02,Acu-Link.com,2013-06-25 07:21:00,
2013-06-25 00:36:00,53.6,53.0,29.52,ENE,67,0.0,-999.0,98,-99.99,,,0.02,Acu-Link.com,2013-06-25 07:36:00,
2013-06-25 00:51:00,53.6,53.0,29.52,East,90,0.0,-999.0,98,-99.99,,,0.05,Acu-Link.com,2013-06-25 07:51:00,
2013-06-25 01:09:00,53.6,53.0,29.53,ESE,112,0.0,-999.0,98,-99.99,,,0.06,Acu-Link.com,2013-06-25 08:09:00,
2013-06-25 01:24:00,53.6,53.0,29.53,ESE,112,0.0,-999.0,98,-99.99,,,0.06,Acu-Link.com,2013-06-25 08:24:00,
2013-06-25 01:39:00,53.6,53.0,29.52,ESE,112,0.0,-999.0,98,-99.99,,,0.08,Acu-Link.com,2013-06-25 08:39:00,
2013-06-25 01:54:00,53.6,53.0,29.53,ESE,112,0.0,-999.0,98,-99.99,,,0.09,Acu-Link.com,2013-06-25 08:54:00,
2013-06-25 02:09:00,53.6,53.0,29.53,West,270,0.0,-999.0,98,-99.99,,,0.12,Acu-Link.com,2013-06-25 09:09:00,
2013-06-25 02:24:00,53.6,53.0,29.53,NE,45,0.0,-999.0,98,-99.99,,,0.19,Acu-Link.com,2013-06-25 09:24:00,
2013-06-25 02:39:00,51.8,51.3,29.53,SW,225,0.0,-999.0,98,-99.99,,,0.21,Acu-Link.com,2013-06-25 09:39:00,
2013-06-25 02:54:00,51.8,51.3,29.53,ESE,112,0.0,-999.0,98,-99.99,,,0.25,Acu-Link.com,2013-06-25 09:54:00,
2013-06-25 03:09:00,51.8,51.3,29.54,NE,45,0.0,-999.0,98,-99.99,,,0.27,Acu-Link.com,2013-06-25 10:09:00,
2013-06-25 03:24:00,51.8,51.3,29.54,East,90,0.0,-999.0,98,-99.99,,,0.31,Acu-Link.com,2013-06-25 10:24:00,
2013-06-25 03:40:00,51.8,51.3,29.54,WNW,292,0.0,-999.0,98,-99.99,,,0.31,Acu-Link.com,2013-06-25 10:40:00,
2013-06-25 03:55:00,51.8,51.3,29.54,SE,135,0.0,-999.0,98,-99.99,,,0.31,Acu-Link.com,2013-06-25 10:55:00,
2013-06-25 04:10:00,51.8,51.3,29.55,ESE,112,0.0,-999.0,98,-99.99,,,0.32,Acu-Link.com,2013-06-25 11:10:00,
2013-06-25 04:25:00,51.8,51.3,29.55,ENE,67,0.0,-999.0,98,-99.99,,,0.33,Acu-Link.com,2013-06-25 11:25:00,
2013-06-25 04:40:00,51.8,51.3,29.55,NE,45,0.0,-999.0,98,-99.99,,,0.34,Acu-Link.com,2013-06-25 11:40:00,
2013-06-25 04:55:00,51.8,51.3,29.56,East,90,0.0,-999.0,98,-99.99,,,0.34,Acu-Link.com,2013-06-25 11:55:00,
2013-06-25 05:10:00,51.8,51.3,29.56,ESE,112,0.0,-999.0,98,-99.99,,,0.34,Acu-Link.com,2013-06-25 12:10:00,
2013-06-25 05:25:00,50.0,49.5,29.56,ENE,67,0.0,-999.0,98,-99.99,,,0.35,Acu-Link.com,2013-06-25 12:25:00,
2013-06-25 05:40:00,50.0,49.5,29.56,NE,45,0.0,-999.0,98,-99.99,,,0.35,Acu-Link.com,2013-06-25 12:40:00,
2013-06-25 05:55:00,50.0,49.5,29.56,SSE,157,0.0,-999.0,98,-99.99,,,0.35,Acu-Link.com,2013-06-25 12:55:00,
2013-06-25 06:10:00,50.0,49.5,29.57,SE,135,0.0,-999.0,98,-99.99,,,0.35,Acu-Link.com,2013-06-25 13:10:00,
2013-06-25 06:25:00,50.0,49.5,29.57,SE,135,0.0,-999.0,98,-99.99,,,0.35,Acu-Link.com,2013-06-25 13:25:00,
2013-06-25 06:40:00,50.0,49.5,29.57,ESE,112,0.0,-999.0,98,-99.99,,,0.35,Acu-Link.com,2013-06-25 13:40:00,
2013-06-25 06:55:00,51.8,51.3,29.57,East,90,0.0,-999.0,98,-99.99,,,0.35,Acu-Link.com,2013-06-25 13:55:00,
2013-06-25 07:10:00,51.8,51.3,29.57,East,90,0.0,-999.0,98,-99.99,,,0.35,Acu-Link.com,2013-06-25 14:10:00,
2013-06-25 07:25:00,50.0,49.5,29.57,SSE,157,0.0,-999.0,98,-99.99,,,0.35,Acu-Link.com,2013-06-25 14:25:00,
2013-06-25 07:40:00,51.8,51.3,29.58,SW,225,0.0,-999.0,98,-99.99,,,0.35,Acu-Link.com,2013-06-25 14:40:00,
2013-06-25 07:55:00,51.8,51.3,29.58,ENE,67,0.0,-999.0,98,-99.99,,,0.35,Acu-Link.com,2013-06-25 14:55:00,
2013-06-25 08:10:00,51.8,49.0,29.58,SSE,157,0.0,-999.0,90,-99.99,,,0.35,Acu-Link.com,2013-06-25 15:10:00,
2013-06-25 08:25:00,53.6,51.9,29.58,SSW,202,0.0,-999.0,94,-99.99,,,0.35,Acu-Link.com,2013-06-25 15:25:00,
2013-06-25 08:40:00,53.6,50.4,29.58,ESE,112,0.0,-999.0,89,-99.99,,,0.35,Acu-Link.com,2013-06-25 15:40:00,
2013-06-25 08:55:00,53.6,49.5,29.58,SE,135,0.0,-999.0,86,-99.99,,,0.35,Acu-Link.com,2013-06-25 15:55:00,
2013-06-25 09:10:00,55.4,49.3,29.59,ESE,112,2.0,-999.0,80,-99.99,,,0.35,Acu-Link.com,2013-06-25 16:10:00,
2013-06-25 09:25:00,55.4,50.0,29.58,SW,225,2.0,-999.0,82,-99.99,,,0.35,Acu-Link.com,2013-06-25 16:25:00,
2013-06-25 09:40:00,57.2,49.7,29.59,ESE,112,1.6,-999.0,76,-99.99,,,0.35,Acu-Link.com,2013-06-25 16:40:00,
2013-06-25 09:55:00,59.0,50.7,29.58,ENE,67,3.1,-999.0,74,-99.99,,,0.35,Acu-Link.com,2013-06-25 16:55:00,
2013-06-25 10:10:00,60.8,49.8,29.58,West,270,2.0,-999.0,67,-99.99,,,0.35,Acu-Link.com,2013-06-25 17:10:00,
2013-06-25 10:25:00,60.8,49.4,29.58,West,270,5.6,-999.0,66,-99.99,,,0.35,Acu-Link.com,2013-06-25 17:25:00,
2013-06-25 10:40:00,62.6,50.7,29.58,South,180,1.6,-999.0,65,-99.99,,,0.35,Acu-Link.com,2013-06-25 17:40:00,
2013-06-25 10:55:00,64.4,50.7,29.58,South,180,3.1,-999.0,61,-99.99,,,0.35,Acu-Link.com,2013-06-25 17:55:00,
2013-06-25 11:10:00,62.6,48.1,29.58,East,90,3.1,-999.0,59,-99.99,,,0.35,Acu-Link.com,2013-06-25 18:10:00,
2013-06-25 11:26:00,62.6,48.1,29.58,ESE,112,4.0,-999.0,59,-99.99,,,0.35,Acu-Link.com,2013-06-25 18:26:00,
2013-06-25 11:41:00,62.6,48.5,29.58,West,270,1.6,-999.0,60,-99.99,,,0.35,Acu-Link.com,2013-06-25 18:41:00,
2013-06-25 11:56:00,64.4,48.8,29.59,South,180,2.0,-999.0,57,-99.99,,,0.35,Acu-Link.com,2013-06-25 18:56:00,
2013-06-25 12:11:00,66.2,48.6,29.58,ESE,112,3.1,-999.0,53,-99.99,,,0.35,Acu-Link.com,2013-06-25 19:11:00,
2013-06-25 12:26:00,64.4,49.3,29.58,South,180,7.8,-999.0,58,-99.99,,,0.35,Acu-Link.com,2013-06-25 19:26:00,
2013-06-25 12:41:00,68.0,49.2,29.58,South,180,1.1,-999.0,51,-99.99,,,0.35,Acu-Link.com,2013-06-25 19:41:00,
2013-06-25 12:56:00,68.0,47.6,29.58,SSE,157,3.1,-999.0,48,-99.99,,,0.35,Acu-Link.com,2013-06-25 19:56:00,
2013-06-25 13:11:00,69.8,49.2,29.58,ESE,112,3.6,-999.0,48,-99.99,,,0.35,Acu-Link.com,2013-06-25 20:11:00,
2013-06-25 13:26:00,71.6,48.5,29.57,SSW,202,3.1,-999.0,44,-99.99,,,0.35,Acu-Link.com,2013-06-25 20:26:00,
2013-06-25 13:41:00,68.0,45.9,29.57,South,180,2.7,-999.0,45,-99.99,,,0.35,Acu-Link.com,2013-06-25 20:41:00,
2013-06-25 13:56:00,68.0,48.1,29.57,ESE,112,3.1,-999.0,49,-99.99,,,0.35,Acu-Link.com,2013-06-25 20:56:00,
2013-06-25 14:11:00,69.8,46.9,29.57,ESE,112,4.7,-999.0,44,-99.99,,,0.35,Acu-Link.com,2013-06-25 21:11:00,
2013-06-25 14:26:00,69.8,49.2,29.56,South,180,4.0,-999.0,48,-99.99,,,0.35,Acu-Link.com,2013-06-25 21:26:00,
2013-06-25 14:41:00,71.6,50.3,29.57,SE,135,5.1,-999.0,47,-99.99,,,0.35,Acu-Link.com,2013-06-25 21:41:00,
2013-06-25 14:56:00,68.0,50.7,29.57,SSW,202,2.7,-999.0,54,-99.99,,,0.35,Acu-Link.com,2013-06-25 21:56:00,
2013-06-25 15:11:00,64.4,45.9,29.56,South,180,3.1,-999.0,51,-99.99,,,0.35,Acu-Link.com,2013-06-25 22:11:00,
2013-06-25 15:26:00,64.4,47.9,29.57,SSE,157,2.0,-999.0,55,-99.99,,,0.35,Acu-Link.com,2013-06-25 22:26:00,
2013-06-25 15:41:00,64.4,46.4,29.57,SSW,202,1.6,-999.0,52,-99.99,,,0.35,Acu-Link.com,2013-06-25 22:41:00,
2013-06-25 15:56:00,64.4,47.4,29.57,SSE,157,1.6,-999.0,54,-99.99,,,0.35,Acu-Link.com,2013-06-25 22:56:00,
2013-06-25 16:11:00,64.4,48.8,29.58,West,270,3.1,-999.0,57,-99.99,,,0.35,Acu-Link.com,2013-06-25 23:11:00,
2013-06-25 16:26:00,62.6,45.2,29.58,SSW,202,0.0,-999.0,53,-99.99,,,0.35,Acu-Link.com,2013-06-25 23:26:00,
2013-06-25 16:41:00,62.6,47.6,29.58,ESE,112,0.0,-999.0,58,-99.99,,,0.35,Acu-Link.com,2013-06-25 23:41:00,
2013-06-25 16:56:00,62.6,47.2,29.58,South,180,2.0,-999.0,57,-99.99,,,0.35,Acu-Link.com,2013-06-25 23:56:00,
2013-06-25 17:11:00,62.6,50.2,29.58,SSE,157,3.6,-999.0,64,-99.99,,,0.35,Acu-Link.com,2013-06-26 00:11:00,
2013-06-25 17:26:00,62.6,48.1,29.58,ESE,112,2.0,-999.0,59,-99.99,,,0.35,Acu-Link.com,2013-06-26 00:26:00,
2013-06-25 17:41:00,68.0,49.2,29.57,ESE,112,2.7,-999.0,51,-99.99,,,0.35,Acu-Link.com,2013-06-26 00:41:00,
2013-06-25 17:56:00,69.8,48.1,29.57,ESE,112,2.0,-999.0,46,-99.99,,,0.35,Acu-Link.com,2013-06-26 00:56:00,
2013-06-25 18:11:00,69.8,44.4,29.57,SSW,202,4.0,-999.0,40,-99.99,,,0.35,Acu-Link.com,2013-06-26 01:11:00,
2013-06-25 18:26:00,68.0,44.7,29.57,South,180,4.0,-999.0,43,-99.99,,,0.35,Acu-Link.com,2013-06-26 01:26:00,
2013-06-25 18:41:00,64.4,43.2,29.57,North,0,2.7,-999.0,46,-99.99,,,0.35,Acu-Link.com,2013-06-26 01:41:00,
2013-06-25 18:56:00,68.0,45.3,29.57,SW,225,2.7,-999.0,44,-99.99,,,0.35,Acu-Link.com,2013-06-26 01:56:00,
2013-06-25 19:11:00,69.8,45.7,29.58,WSW,247,2.7,-999.0,42,-99.99,,,0.35,Acu-Link.com,2013-06-26 02:11:00,
2013-06-25 19:26:00,68.0,43.4,29.58,SSE,157,2.0,-999.0,41,-99.99,,,0.35,Acu-Link.com,2013-06-26 02:26:00,
2013-06-25 19:41:00,64.4,42.6,29.58,ESE,112,1.6,-999.0,45,-99.99,,,0.35,Acu-Link.com,2013-06-26 02:41:00,
2013-06-25 19:57:00,64.4,43.2,29.58,SE,135,2.0,-999.0,46,-99.99,,,0.35,Acu-Link.com,2013-06-26 02:57:00,
2013-06-25 20:12:00,62.6,42.6,29.59,NE,45,1.1,-999.0,48,-99.99,,,0.35,Acu-Link.com,2013-06-26 03:12:00,
2013-06-25 20:27:00,60.8,42.6,29.60,WNW,292,1.1,-999.0,51,-99.99,,,0.35,Acu-Link.com,2013-06-26 03:27:00,
2013-06-25 20:42:00,60.8,43.6,29.61,South,180,0.0,-999.0,53,-99.99,,,0.35,Acu-Link.com,2013-06-26 03:42:00,
2013-06-25 20:57:00,59.0,43.3,29.61,ESE,112,0.0,-999.0,56,-99.99,,,0.35,Acu-Link.com,2013-06-26 03:57:00,
2013-06-25 21:12:00,59.0,44.7,29.62,East,90,0.0,-999.0,59,-99.99,,,0.35,Acu-Link.com,2013-06-26 04:12:00,
2013-06-25 21:27:00,57.2,43.4,29.62,East,90,0.0,-999.0,60,-99.99,,,0.35,Acu-Link.com,2013-06-26 04:27:00,
2013-06-25 21:42:00,55.4,41.7,29.63,West,270,0.0,-999.0,60,-99.99,,,0.35,Acu-Link.com,2013-06-26 04:42:00,
2013-06-25 21:57:00,55.4,42.2,29.64,SSE,157,1.6,-999.0,61,-99.99,,,0.35,Acu-Link.com,2013-06-26 04:57:00,
2013-06-25 22:12:00,53.6,40.5,29.65,West,270,2.0,-999.0,61,-99.99,,,0.35,Acu-Link.com,2013-06-26 05:12:00,
2013-06-25 22:27:00,53.6,40.9,29.65,West,270,0.0,-999.0,62,-99.99,,,0.35,Acu-Link.com,2013-06-26 05:27:00,
2013-06-25 22:42:00,51.8,40.0,29.65,ENE,67,0.0,-999.0,64,-99.99,,,0.35,Acu-Link.com,2013-06-26 05:42:00,
2013-06-25 22:57:00,51.8,40.8,29.66,ENE,67,0.0,-999.0,66,-99.99,,,0.35,Acu-Link.com,2013-06-26 05:57:00,
2013-06-25 23:12:00,51.8,42.0,29.66,ENE,67,0.0,-999.0,69,-99.99,,,0.35,Acu-Link.com,2013-06-26 06:12:00,
2013-06-25 23:27:00,50.0,41.7,29.66,East,90,0.0,-999.0,73,-99.99,,,0.35,Acu-Link.com,2013-06-26 06:27:00,
2013-06-25 23:42:00,50.0,41.0,29.67,ESE,112,0.0,-999.0,71,-99.99,,,0.35,Acu-Link.com,2013-06-26 06:42:00,
2013-06-25 23:57:00,50.0,41.0,29.67,East,90,0.0,-999.0,71,-99.99,,,0.35,Acu-Link.com,2013-06-26 06:57:00,